sensor_id;sensor_type;location;lat;lon;timestamp;P1;durP1;ratioP1;P2;durP2;ratioP2
66919;SDS011;53831;52.090;17.026;2022-11-15T00:00:10;44.50;;;21.27;;
66919;SDS011;53831;52.090;17.026;2022-11-15T00:01:30;38.63;;;19.17;;
66919;SDS011;53831;52.090;17.026;2022-11-15T00:02:49;41.70;;;20.48;;
66919;SDS011;53831;52.090;17.026;2022-11-15T00:04:08;40.90;;;19.60;;
66919;SDS011;53831;52.090;17.026;2022-11-15T00:05:28;42.30;;;20.35;;
66919;SDS011;53831;52.090;17.026;2022-11-15T00:06:48;42.97;;;20.00;;
66919;SDS011;53831;52.090;17.026;2022-11-15T00:08:07;42.22;;;20.98;;
66919;SDS011;53831;52.090;17.026;2022-11-15T00:09:26;43.42;;;20.88;;
66919;SDS011;53831;52.090;17.026;2022-11-15T00:10:55;38.97;;;20.10;;
66919;SDS011;53831;52.090;17.026;2022-11-15T00:12:18;39.00;;;19.85;;
66919;SDS011;53831;52.090;17.026;2022-11-15T00:13:37;43.60;;;19.83;;
66919;SDS011;53831;52.090;17.026;2022-11-15T00:14:57;40.47;;;19.77;;
66919;SDS011;53831;52.090;17.026;2022-11-15T00:16:16;42.67;;;20.20;;
66919;SDS011;53831;52.090;17.026;2022-11-15T00:17:35;37.92;;;19.48;;
66919;SDS011;53831;52.090;17.026;2022-11-15T00:18:54;46.97;;;21.70;;
66919;SDS011;53831;52.090;17.026;2022-11-15T00:20:18;44.53;;;21.00;;
66919;SDS011;53831;52.090;17.026;2022-11-15T00:21:37;42.78;;;21.35;;
66919;SDS011;53831;52.090;17.026;2022-11-15T00:22:57;45.85;;;20.05;;
66919;SDS011;53831;52.090;17.026;2022-11-15T00:24:16;43.00;;;21.15;;
66919;SDS011;53831;52.090;17.026;2022-11-15T00:25:35;45.95;;;20.70;;
66919;SDS011;53831;52.090;17.026;2022-11-15T00:26:54;40.17;;;20.02;;
66919;SDS011;53831;52.090;17.026;2022-11-15T00:28:13;43.42;;;21.58;;
66919;SDS011;53831;52.090;17.026;2022-11-15T00:29:32;40.75;;;20.65;;
66919;SDS011;53831;52.090;17.026;2022-11-15T00:30:52;40.33;;;20.25;;
66919;SDS011;53831;52.090;17.026;2022-11-15T00:32:11;38.97;;;19.35;;
66919;SDS011;53831;52.090;17.026;2022-11-15T00:33:30;39.53;;;20.80;;
66919;SDS011;53831;52.090;17.026;2022-11-15T00:34:50;40.08;;;20.15;;
66919;SDS011;53831;52.090;17.026;2022-11-15T00:36:10;39.65;;;20.23;;
66919;SDS011;53831;52.090;17.026;2022-11-15T00:37:29;44.65;;;20.92;;
66919;SDS011;53831;52.090;17.026;2022-11-15T00:38:49;38.83;;;19.75;;
66919;SDS011;53831;52.090;17.026;2022-11-15T00:40:08;38.97;;;19.63;;
66919;SDS011;53831;52.090;17.026;2022-11-15T00:41:28;40.75;;;20.00;;
66919;SDS011;53831;52.090;17.026;2022-11-15T00:42:47;39.90;;;20.52;;
66919;SDS011;53831;52.090;17.026;2022-11-15T00:44:06;40.78;;;20.00;;
66919;SDS011;53831;52.090;17.026;2022-11-15T00:45:25;41.05;;;19.90;;
66919;SDS011;53831;52.090;17.026;2022-11-15T00:46:44;38.63;;;19.67;;
66919;SDS011;53831;52.090;17.026;2022-11-15T00:48:03;44.20;;;21.40;;
66919;SDS011;53831;52.090;17.026;2022-11-15T00:49:22;43.20;;;20.83;;
66919;SDS011;53831;52.090;17.026;2022-11-15T00:50:41;45.65;;;21.30;;
66919;SDS011;53831;52.090;17.026;2022-11-15T00:52:01;41.75;;;20.95;;
66919;SDS011;53831;52.090;17.026;2022-11-15T00:53:20;42.03;;;20.80;;
66919;SDS011;53831;52.090;17.026;2022-11-15T00:54:39;42.28;;;19.98;;
66919;SDS011;53831;52.090;17.026;2022-11-15T00:55:58;42.63;;;19.45;;
66919;SDS011;53831;52.090;17.026;2022-11-15T00:57:17;41.70;;;19.63;;
66919;SDS011;53831;52.090;17.026;2022-11-15T00:58:36;40.67;;;20.10;;
66919;SDS011;53831;52.090;17.026;2022-11-15T00:59:55;38.85;;;19.77;;
66919;SDS011;53831;52.090;17.026;2022-11-15T01:01:14;39.28;;;19.17;;
66919;SDS011;53831;52.090;17.026;2022-11-15T01:02:34;36.28;;;19.30;;
66919;SDS011;53831;52.090;17.026;2022-11-15T01:03:53;37.33;;;18.58;;
66919;SDS011;53831;52.090;17.026;2022-11-15T01:05:12;36.95;;;18.77;;
66919;SDS011;53831;52.090;17.026;2022-11-15T01:06:31;37.28;;;19.73;;
66919;SDS011;53831;52.090;17.026;2022-11-15T01:07:53;35.33;;;19.05;;
66919;SDS011;53831;52.090;17.026;2022-11-15T01:09:13;35.53;;;18.50;;
66919;SDS011;53831;52.090;17.026;2022-11-15T01:10:32;37.25;;;19.55;;
66919;SDS011;53831;52.090;17.026;2022-11-15T01:11:52;37.08;;;19.17;;
66919;SDS011;53831;52.090;17.026;2022-11-15T01:13:11;40.50;;;18.70;;
66919;SDS011;53831;52.090;17.026;2022-11-15T01:14:30;36.40;;;18.25;;
66919;SDS011;53831;52.090;17.026;2022-11-15T01:15:49;35.05;;;18.17;;
66919;SDS011;53831;52.090;17.026;2022-11-15T01:17:08;38.47;;;18.58;;
66919;SDS011;53831;52.090;17.026;2022-11-15T01:18:27;37.75;;;19.60;;
66919;SDS011;53831;52.090;17.026;2022-11-15T01:19:46;37.17;;;19.63;;
66919;SDS011;53831;52.090;17.026;2022-11-15T01:21:09;35.38;;;18.13;;
66919;SDS011;53831;52.090;17.026;2022-11-15T01:22:30;36.25;;;19.05;;
66919;SDS011;53831;52.090;17.026;2022-11-15T01:23:52;38.22;;;19.10;;
66919;SDS011;53831;52.090;17.026;2022-11-15T01:25:14;35.63;;;18.70;;
66919;SDS011;53831;52.090;17.026;2022-11-15T01:26:34;34.38;;;18.33;;
66919;SDS011;53831;52.090;17.026;2022-11-15T01:27:53;36.60;;;18.73;;
66919;SDS011;53831;52.090;17.026;2022-11-15T01:29:12;37.38;;;18.58;;
66919;SDS011;53831;52.090;17.026;2022-11-15T01:30:31;35.58;;;19.10;;
66919;SDS011;53831;52.090;17.026;2022-11-15T01:31:52;38.47;;;19.75;;
66919;SDS011;53831;52.090;17.026;2022-11-15T01:33:12;34.45;;;17.80;;
66919;SDS011;53831;52.090;17.026;2022-11-15T01:34:31;42.92;;;20.58;;
66919;SDS011;53831;52.090;17.026;2022-11-15T01:35:50;39.78;;;19.33;;
66919;SDS011;53831;52.090;17.026;2022-11-15T01:37:09;40.22;;;19.42;;
66919;SDS011;53831;52.090;17.026;2022-11-15T01:38:28;33.53;;;18.17;;
66919;SDS011;53831;52.090;17.026;2022-11-15T01:39:47;32.10;;;17.80;;
66919;SDS011;53831;52.090;17.026;2022-11-15T01:41:12;39.05;;;20.35;;
66919;SDS011;53831;52.090;17.026;2022-11-15T01:42:34;39.83;;;20.27;;
66919;SDS011;53831;52.090;17.026;2022-11-15T01:43:54;34.15;;;18.08;;
66919;SDS011;53831;52.090;17.026;2022-11-15T01:45:36;37.15;;;18.45;;
66919;SDS011;53831;52.090;17.026;2022-11-15T01:46:56;34.35;;;19.50;;
66919;SDS011;53831;52.090;17.026;2022-11-15T01:48:17;34.35;;;18.20;;
66919;SDS011;53831;52.090;17.026;2022-11-15T01:49:37;38.22;;;18.33;;
66919;SDS011;53831;52.090;17.026;2022-11-15T01:50:59;34.10;;;17.63;;
66919;SDS011;53831;52.090;17.026;2022-11-15T01:52:24;34.80;;;18.27;;
66919;SDS011;53831;52.090;17.026;2022-11-15T01:53:45;35.22;;;18.55;;
66919;SDS011;53831;52.090;17.026;2022-11-15T01:55:09;37.47;;;19.10;;
66919;SDS011;53831;52.090;17.026;2022-11-15T01:56:32;32.35;;;18.52;;
66919;SDS011;53831;52.090;17.026;2022-11-15T01:57:57;33.13;;;17.83;;
66919;SDS011;53831;52.090;17.026;2022-11-15T01:59:19;34.47;;;18.55;;
66919;SDS011;53831;52.090;17.026;2022-11-15T02:00:39;35.25;;;18.00;;
66919;SDS011;53831;52.090;17.026;2022-11-15T02:01:58;36.40;;;18.98;;
66919;SDS011;53831;52.090;17.026;2022-11-15T02:03:18;36.40;;;18.95;;
66919;SDS011;53831;52.090;17.026;2022-11-15T02:04:42;31.92;;;17.05;;
66919;SDS011;53831;52.090;17.026;2022-11-15T02:06:03;35.42;;;18.27;;
66919;SDS011;53831;52.090;17.026;2022-11-15T02:07:23;37.88;;;19.92;;
66919;SDS011;53831;52.090;17.026;2022-11-15T02:08:43;39.10;;;18.75;;
66919;SDS011;53831;52.090;17.026;2022-11-15T02:10:11;33.33;;;18.58;;
66919;SDS011;53831;52.090;17.026;2022-11-15T02:11:32;33.47;;;17.67;;
66919;SDS011;53831;52.090;17.026;2022-11-15T02:12:51;31.08;;;17.50;;
66919;SDS011;53831;52.090;17.026;2022-11-15T02:14:11;31.40;;;17.65;;
66919;SDS011;53831;52.090;17.026;2022-11-15T02:15:35;32.03;;;17.52;;
66919;SDS011;53831;52.090;17.026;2022-11-15T02:17:10;34.35;;;17.02;;
66919;SDS011;53831;52.090;17.026;2022-11-15T02:18:37;32.35;;;18.05;;
66919;SDS011;53831;52.090;17.026;2022-11-15T02:34:43;33.58;;;17.77;;
66919;SDS011;53831;52.090;17.026;2022-11-15T02:36:07;32.25;;;17.70;;
66919;SDS011;53831;52.090;17.026;2022-11-15T02:41:09;33.38;;;16.98;;
66919;SDS011;53831;52.090;17.026;2022-11-15T02:42:33;32.20;;;16.92;;
66919;SDS011;53831;52.090;17.026;2022-11-15T02:44:19;34.50;;;18.55;;
66919;SDS011;53831;52.090;17.026;2022-11-15T02:46:16;31.13;;;16.92;;
66919;SDS011;53831;52.090;17.026;2022-11-15T02:47:43;31.08;;;17.08;;
66919;SDS011;53831;52.090;17.026;2022-11-15T02:49:04;34.05;;;18.17;;
66919;SDS011;53831;52.090;17.026;2022-11-15T02:50:27;32.15;;;17.35;;
66919;SDS011;53831;52.090;17.026;2022-11-15T02:51:48;32.42;;;17.27;;
66919;SDS011;53831;52.090;17.026;2022-11-15T02:53:09;31.98;;;17.08;;
66919;SDS011;53831;52.090;17.026;2022-11-15T02:54:30;30.05;;;16.52;;
66919;SDS011;53831;52.090;17.026;2022-11-15T02:55:50;34.13;;;17.30;;
66919;SDS011;53831;52.090;17.026;2022-11-15T02:57:15;29.50;;;16.08;;
66919;SDS011;53831;52.090;17.026;2022-11-15T03:01:55;31.23;;;17.58;;
66919;SDS011;53831;52.090;17.026;2022-11-15T03:03:43;31.30;;;17.13;;
66919;SDS011;53831;52.090;17.026;2022-11-15T03:09:41;32.58;;;16.55;;
66919;SDS011;53831;52.090;17.026;2022-11-15T03:11:10;30.33;;;17.13;;
66919;SDS011;53831;52.090;17.026;2022-11-15T03:15:43;29.27;;;16.30;;
66919;SDS011;53831;52.090;17.026;2022-11-15T03:17:26;28.55;;;16.42;;
66919;SDS011;53831;52.090;17.026;2022-11-15T03:18:52;31.08;;;16.88;;
66919;SDS011;53831;52.090;17.026;2022-11-15T03:20:36;30.92;;;16.27;;
66919;SDS011;53831;52.090;17.026;2022-11-15T03:21:56;31.88;;;17.58;;
66919;SDS011;53831;52.090;17.026;2022-11-15T03:23:19;29.50;;;16.20;;
66919;SDS011;53831;52.090;17.026;2022-11-15T03:24:39;33.05;;;17.77;;
66919;SDS011;53831;52.090;17.026;2022-11-15T03:26:01;32.25;;;17.52;;
66919;SDS011;53831;52.090;17.026;2022-11-15T03:27:25;36.75;;;18.95;;
66919;SDS011;53831;52.090;17.026;2022-11-15T03:28:52;33.10;;;17.88;;
66919;SDS011;53831;52.090;17.026;2022-11-15T03:30:16;30.58;;;16.60;;
66919;SDS011;53831;52.090;17.026;2022-11-15T03:31:37;32.95;;;18.27;;
66919;SDS011;53831;52.090;17.026;2022-11-15T03:33:06;30.15;;;16.15;;
66919;SDS011;53831;52.090;17.026;2022-11-15T03:34:28;32.13;;;18.30;;
66919;SDS011;53831;52.090;17.026;2022-11-15T03:36:08;29.00;;;15.88;;
66919;SDS011;53831;52.090;17.026;2022-11-15T03:37:34;30.10;;;16.23;;
66919;SDS011;53831;52.090;17.026;2022-11-15T03:39:04;32.15;;;17.08;;
66919;SDS011;53831;52.090;17.026;2022-11-15T03:40:42;29.65;;;16.45;;
66919;SDS011;53831;52.090;17.026;2022-11-15T03:43:49;30.92;;;16.90;;
66919;SDS011;53831;52.090;17.026;2022-11-15T03:45:29;31.25;;;17.20;;
66919;SDS011;53831;52.090;17.026;2022-11-15T03:48:35;29.58;;;16.05;;
66919;SDS011;53831;52.090;17.026;2022-11-15T03:49:59;30.33;;;15.95;;
66919;SDS011;53831;52.090;17.026;2022-11-15T03:51:29;28.58;;;16.80;;
66919;SDS011;53831;52.090;17.026;2022-11-15T03:52:48;28.00;;;15.98;;
66919;SDS011;53831;52.090;17.026;2022-11-15T03:54:10;30.30;;;16.40;;
66919;SDS011;53831;52.090;17.026;2022-11-15T03:55:31;29.00;;;16.63;;
66919;SDS011;53831;52.090;17.026;2022-11-15T03:56:51;31.02;;;16.40;;
66919;SDS011;53831;52.090;17.026;2022-11-15T03:58:10;28.27;;;15.77;;
66919;SDS011;53831;52.090;17.026;2022-11-15T03:59:29;28.58;;;15.95;;
66919;SDS011;53831;52.090;17.026;2022-11-15T04:00:49;30.88;;;16.77;;
66919;SDS011;53831;52.090;17.026;2022-11-15T04:02:08;28.52;;;17.17;;
66919;SDS011;53831;52.090;17.026;2022-11-15T04:03:27;28.63;;;15.50;;
66919;SDS011;53831;52.090;17.026;2022-11-15T04:04:46;31.73;;;17.38;;
66919;SDS011;53831;52.090;17.026;2022-11-15T04:06:05;31.10;;;16.35;;
66919;SDS011;53831;52.090;17.026;2022-11-15T04:07:24;30.13;;;16.02;;
66919;SDS011;53831;52.090;17.026;2022-11-15T04:08:44;29.27;;;16.50;;
66919;SDS011;53831;52.090;17.026;2022-11-15T04:10:03;31.27;;;16.88;;
66919;SDS011;53831;52.090;17.026;2022-11-15T04:11:22;33.22;;;17.00;;
66919;SDS011;53831;52.090;17.026;2022-11-15T04:12:42;29.73;;;16.83;;
66919;SDS011;53831;52.090;17.026;2022-11-15T04:14:04;29.13;;;16.25;;
66919;SDS011;53831;52.090;17.026;2022-11-15T04:15:24;29.38;;;16.95;;
66919;SDS011;53831;52.090;17.026;2022-11-15T04:16:43;29.15;;;16.73;;
66919;SDS011;53831;52.090;17.026;2022-11-15T04:18:02;30.23;;;15.95;;
66919;SDS011;53831;52.090;17.026;2022-11-15T04:19:21;29.98;;;16.88;;
66919;SDS011;53831;52.090;17.026;2022-11-15T04:21:19;30.13;;;16.45;;
66919;SDS011;53831;52.090;17.026;2022-11-15T04:22:57;31.25;;;17.17;;
66919;SDS011;53831;52.090;17.026;2022-11-15T04:24:36;29.73;;;16.05;;
66919;SDS011;53831;52.090;17.026;2022-11-15T04:25:56;27.27;;;16.27;;
66919;SDS011;53831;52.090;17.026;2022-11-15T04:27:18;32.83;;;17.27;;
66919;SDS011;53831;52.090;17.026;2022-11-15T04:28:37;29.45;;;16.13;;
66919;SDS011;53831;52.090;17.026;2022-11-15T04:30:15;32.67;;;16.35;;
66919;SDS011;53831;52.090;17.026;2022-11-15T04:31:35;31.23;;;16.33;;
66919;SDS011;53831;52.090;17.026;2022-11-15T04:32:54;31.27;;;16.10;;
66919;SDS011;53831;52.090;17.026;2022-11-15T04:34:13;33.15;;;16.98;;
66919;SDS011;53831;52.090;17.026;2022-11-15T04:35:32;32.63;;;18.02;;
66919;SDS011;53831;52.090;17.026;2022-11-15T04:36:52;30.45;;;16.30;;
66919;SDS011;53831;52.090;17.026;2022-11-15T04:38:29;31.13;;;16.40;;
66919;SDS011;53831;52.090;17.026;2022-11-15T04:39:49;29.55;;;16.23;;
66919;SDS011;53831;52.090;17.026;2022-11-15T04:41:07;30.83;;;16.85;;
66919;SDS011;53831;52.090;17.026;2022-11-15T04:42:26;30.42;;;16.83;;
66919;SDS011;53831;52.090;17.026;2022-11-15T04:43:46;33.70;;;17.60;;
66919;SDS011;53831;52.090;17.026;2022-11-15T04:45:05;30.27;;;16.58;;
66919;SDS011;53831;52.090;17.026;2022-11-15T04:46:25;32.53;;;16.95;;
66919;SDS011;53831;52.090;17.026;2022-11-15T04:47:45;31.48;;;17.35;;
66919;SDS011;53831;52.090;17.026;2022-11-15T04:49:04;30.95;;;17.27;;
66919;SDS011;53831;52.090;17.026;2022-11-15T04:50:24;30.50;;;15.88;;
66919;SDS011;53831;52.090;17.026;2022-11-15T04:51:43;29.70;;;16.70;;
66919;SDS011;53831;52.090;17.026;2022-11-15T04:53:02;33.88;;;17.02;;
66919;SDS011;53831;52.090;17.026;2022-11-15T04:54:22;30.02;;;17.23;;
66919;SDS011;53831;52.090;17.026;2022-11-15T04:55:43;33.88;;;16.58;;
66919;SDS011;53831;52.090;17.026;2022-11-15T04:57:03;32.28;;;17.48;;
66919;SDS011;53831;52.090;17.026;2022-11-15T04:58:22;33.00;;;18.45;;
66919;SDS011;53831;52.090;17.026;2022-11-15T04:59:42;31.98;;;17.10;;
66919;SDS011;53831;52.090;17.026;2022-11-15T05:01:07;33.35;;;17.58;;
66919;SDS011;53831;52.090;17.026;2022-11-15T05:02:27;31.13;;;16.50;;
66919;SDS011;53831;52.090;17.026;2022-11-15T05:04:06;32.22;;;17.48;;
66919;SDS011;53831;52.090;17.026;2022-11-15T05:05:38;32.58;;;17.88;;
66919;SDS011;53831;52.090;17.026;2022-11-15T05:06:57;31.50;;;16.55;;
66919;SDS011;53831;52.090;17.026;2022-11-15T05:08:16;31.58;;;16.23;;
66919;SDS011;53831;52.090;17.026;2022-11-15T05:09:35;30.77;;;16.73;;
66919;SDS011;53831;52.090;17.026;2022-11-15T05:10:54;32.40;;;18.27;;
66919;SDS011;53831;52.090;17.026;2022-11-15T05:12:13;32.92;;;17.10;;
66919;SDS011;53831;52.090;17.026;2022-11-15T05:13:32;30.48;;;17.63;;
66919;SDS011;53831;52.090;17.026;2022-11-15T05:14:52;34.30;;;17.70;;
66919;SDS011;53831;52.090;17.026;2022-11-15T05:16:11;32.22;;;17.08;;
66919;SDS011;53831;52.090;17.026;2022-11-15T05:17:30;33.53;;;18.05;;
66919;SDS011;53831;52.090;17.026;2022-11-15T05:18:53;34.65;;;18.15;;
66919;SDS011;53831;52.090;17.026;2022-11-15T05:20:13;32.50;;;17.35;;
66919;SDS011;53831;52.090;17.026;2022-11-15T05:21:32;37.47;;;18.65;;
66919;SDS011;53831;52.090;17.026;2022-11-15T05:22:52;33.72;;;18.00;;
66919;SDS011;53831;52.090;17.026;2022-11-15T05:24:14;32.92;;;17.70;;
66919;SDS011;53831;52.090;17.026;2022-11-15T05:25:35;32.28;;;16.40;;
66919;SDS011;53831;52.090;17.026;2022-11-15T05:26:54;35.17;;;18.02;;
66919;SDS011;53831;52.090;17.026;2022-11-15T05:28:13;30.95;;;17.17;;
66919;SDS011;53831;52.090;17.026;2022-11-15T05:29:32;31.35;;;17.23;;
66919;SDS011;53831;52.090;17.026;2022-11-15T05:30:51;28.75;;;17.00;;
66919;SDS011;53831;52.090;17.026;2022-11-15T05:32:10;34.47;;;17.13;;
66919;SDS011;53831;52.090;17.026;2022-11-15T05:33:30;32.00;;;17.05;;
66919;SDS011;53831;52.090;17.026;2022-11-15T05:34:51;29.90;;;17.40;;
66919;SDS011;53831;52.090;17.026;2022-11-15T05:37:56;34.00;;;17.95;;
66919;SDS011;53831;52.090;17.026;2022-11-15T05:39:16;30.80;;;17.05;;
66919;SDS011;53831;52.090;17.026;2022-11-15T05:40:35;30.98;;;16.88;;
66919;SDS011;53831;52.090;17.026;2022-11-15T05:42:13;32.08;;;16.92;;
66919;SDS011;53831;52.090;17.026;2022-11-15T05:43:33;32.97;;;17.60;;
66919;SDS011;53831;52.090;17.026;2022-11-15T05:44:55;34.90;;;18.23;;
66919;SDS011;53831;52.090;17.026;2022-11-15T05:46:16;33.47;;;17.35;;
66919;SDS011;53831;52.090;17.026;2022-11-15T05:47:36;32.78;;;17.80;;
66919;SDS011;53831;52.090;17.026;2022-11-15T05:48:57;31.42;;;16.83;;
66919;SDS011;53831;52.090;17.026;2022-11-15T05:50:16;32.88;;;17.05;;
66919;SDS011;53831;52.090;17.026;2022-11-15T05:51:36;33.35;;;18.02;;
66919;SDS011;53831;52.090;17.026;2022-11-15T05:52:56;34.50;;;17.77;;
66919;SDS011;53831;52.090;17.026;2022-11-15T05:54:16;34.97;;;18.02;;
66919;SDS011;53831;52.090;17.026;2022-11-15T05:55:38;33.05;;;17.42;;
66919;SDS011;53831;52.090;17.026;2022-11-15T05:56:58;34.28;;;17.73;;
66919;SDS011;53831;52.090;17.026;2022-11-15T05:58:18;36.08;;;18.75;;
66919;SDS011;53831;52.090;17.026;2022-11-15T05:59:38;31.60;;;17.48;;
66919;SDS011;53831;52.090;17.026;2022-11-15T06:00:59;38.67;;;19.10;;
66919;SDS011;53831;52.090;17.026;2022-11-15T06:02:19;33.50;;;17.20;;
66919;SDS011;53831;52.090;17.026;2022-11-15T06:03:38;32.42;;;17.80;;
66919;SDS011;53831;52.090;17.026;2022-11-15T06:04:57;32.42;;;17.40;;
66919;SDS011;53831;52.090;17.026;2022-11-15T06:06:16;31.85;;;17.25;;
66919;SDS011;53831;52.090;17.026;2022-11-15T06:07:35;32.40;;;17.73;;
66919;SDS011;53831;52.090;17.026;2022-11-15T06:08:54;32.28;;;17.25;;
66919;SDS011;53831;52.090;17.026;2022-11-15T06:10:14;31.50;;;16.35;;
66919;SDS011;53831;52.090;17.026;2022-11-15T06:11:33;32.20;;;17.83;;
66919;SDS011;53831;52.090;17.026;2022-11-15T06:12:58;33.65;;;17.83;;
66919;SDS011;53831;52.090;17.026;2022-11-15T06:14:18;33.95;;;17.15;;
66919;SDS011;53831;52.090;17.026;2022-11-15T06:15:37;34.00;;;17.92;;
66919;SDS011;53831;52.090;17.026;2022-11-15T06:16:56;32.08;;;17.23;;
66919;SDS011;53831;52.090;17.026;2022-11-15T06:18:15;29.90;;;16.90;;
66919;SDS011;53831;52.090;17.026;2022-11-15T06:19:35;29.13;;;16.25;;
66919;SDS011;53831;52.090;17.026;2022-11-15T06:20:54;29.77;;;16.42;;
66919;SDS011;53831;52.090;17.026;2022-11-15T06:22:17;27.73;;;15.95;;
66919;SDS011;53831;52.090;17.026;2022-11-15T06:23:36;30.85;;;15.82;;
66919;SDS011;53831;52.090;17.026;2022-11-15T06:24:55;28.83;;;15.93;;
66919;SDS011;53831;52.090;17.026;2022-11-15T06:26:15;30.50;;;16.88;;
66919;SDS011;53831;52.090;17.026;2022-11-15T06:27:34;30.08;;;16.80;;
66919;SDS011;53831;52.090;17.026;2022-11-15T06:28:53;31.50;;;17.42;;
66919;SDS011;53831;52.090;17.026;2022-11-15T06:30:12;27.48;;;16.00;;
66919;SDS011;53831;52.090;17.026;2022-11-15T06:31:32;31.30;;;17.00;;
66919;SDS011;53831;52.090;17.026;2022-11-15T06:32:58;29.80;;;15.63;;
66919;SDS011;53831;52.090;17.026;2022-11-15T06:34:20;28.33;;;15.85;;
66919;SDS011;53831;52.090;17.026;2022-11-15T06:35:40;29.55;;;17.40;;
66919;SDS011;53831;52.090;17.026;2022-11-15T06:36:59;32.45;;;16.27;;
66919;SDS011;53831;52.090;17.026;2022-11-15T06:38:18;30.92;;;16.58;;
66919;SDS011;53831;52.090;17.026;2022-11-15T06:39:37;29.77;;;15.90;;
66919;SDS011;53831;52.090;17.026;2022-11-15T06:41:04;31.27;;;17.40;;
66919;SDS011;53831;52.090;17.026;2022-11-15T06:42:24;34.30;;;17.48;;
66919;SDS011;53831;52.090;17.026;2022-11-15T06:43:43;33.85;;;17.13;;
66919;SDS011;53831;52.090;17.026;2022-11-15T06:45:03;32.22;;;16.70;;
66919;SDS011;53831;52.090;17.026;2022-11-15T06:46:22;32.78;;;17.55;;
66919;SDS011;53831;52.090;17.026;2022-11-15T06:47:45;33.78;;;17.38;;
66919;SDS011;53831;52.090;17.026;2022-11-15T06:49:05;30.92;;;16.40;;
66919;SDS011;53831;52.090;17.026;2022-11-15T06:50:24;33.63;;;16.92;;
66919;SDS011;53831;52.090;17.026;2022-11-15T06:51:43;38.67;;;19.38;;
66919;SDS011;53831;52.090;17.026;2022-11-15T06:53:03;50.22;;;25.17;;
66919;SDS011;53831;52.090;17.026;2022-11-15T06:54:22;51.85;;;25.13;;
66919;SDS011;53831;52.090;17.026;2022-11-15T06:55:41;50.55;;;24.35;;
66919;SDS011;53831;52.090;17.026;2022-11-15T06:57:00;48.47;;;23.02;;
66919;SDS011;53831;52.090;17.026;2022-11-15T06:58:20;47.45;;;22.85;;
66919;SDS011;53831;52.090;17.026;2022-11-15T06:59:40;45.55;;;22.55;;
66919;SDS011;53831;52.090;17.026;2022-11-15T07:00:59;47.35;;;22.25;;
66919;SDS011;53831;52.090;17.026;2022-11-15T07:02:20;50.25;;;22.33;;
66919;SDS011;53831;52.090;17.026;2022-11-15T07:03:40;43.70;;;21.38;;
66919;SDS011;53831;52.090;17.026;2022-11-15T07:05:00;41.15;;;21.40;;
66919;SDS011;53831;52.090;17.026;2022-11-15T07:06:19;41.78;;;20.58;;
66919;SDS011;53831;52.090;17.026;2022-11-15T07:07:38;42.05;;;21.48;;
66919;SDS011;53831;52.090;17.026;2022-11-15T07:08:57;40.60;;;20.90;;
66919;SDS011;53831;52.090;17.026;2022-11-15T07:10:16;42.30;;;20.90;;
66919;SDS011;53831;52.090;17.026;2022-11-15T07:11:35;42.30;;;20.75;;
66919;SDS011;53831;52.090;17.026;2022-11-15T07:12:54;40.03;;;19.85;;
66919;SDS011;53831;52.090;17.026;2022-11-15T07:14:14;38.35;;;19.92;;
66919;SDS011;53831;52.090;17.026;2022-11-15T07:15:33;40.35;;;19.25;;
66919;SDS011;53831;52.090;17.026;2022-11-15T07:16:52;37.65;;;20.02;;
66919;SDS011;53831;52.090;17.026;2022-11-15T07:18:11;39.88;;;19.40;;
66919;SDS011;53831;52.090;17.026;2022-11-15T07:19:30;38.08;;;19.40;;
66919;SDS011;53831;52.090;17.026;2022-11-15T07:20:50;34.17;;;19.33;;
66919;SDS011;53831;52.090;17.026;2022-11-15T07:22:09;36.25;;;19.02;;
66919;SDS011;53831;52.090;17.026;2022-11-15T07:23:28;38.67;;;19.40;;
66919;SDS011;53831;52.090;17.026;2022-11-15T07:24:48;34.88;;;19.27;;
66919;SDS011;53831;52.090;17.026;2022-11-15T07:26:07;37.67;;;19.00;;
66919;SDS011;53831;52.090;17.026;2022-11-15T07:27:27;38.88;;;19.42;;
66919;SDS011;53831;52.090;17.026;2022-11-15T07:28:46;39.20;;;19.58;;
66919;SDS011;53831;52.090;17.026;2022-11-15T07:30:05;38.58;;;20.17;;
66919;SDS011;53831;52.090;17.026;2022-11-15T07:31:25;38.38;;;19.65;;
66919;SDS011;53831;52.090;17.026;2022-11-15T07:32:44;34.65;;;18.98;;
66919;SDS011;53831;52.090;17.026;2022-11-15T07:34:03;34.90;;;18.70;;
66919;SDS011;53831;52.090;17.026;2022-11-15T07:35:23;38.10;;;19.80;;
66919;SDS011;53831;52.090;17.026;2022-11-15T07:36:43;37.35;;;20.20;;
66919;SDS011;53831;52.090;17.026;2022-11-15T07:38:02;34.20;;;18.70;;
66919;SDS011;53831;52.090;17.026;2022-11-15T07:39:22;36.72;;;19.40;;
66919;SDS011;53831;52.090;17.026;2022-11-15T07:40:41;36.80;;;19.05;;
66919;SDS011;53831;52.090;17.026;2022-11-15T07:42:00;36.22;;;18.88;;
66919;SDS011;53831;52.090;17.026;2022-11-15T07:43:38;34.25;;;18.30;;
66919;SDS011;53831;52.090;17.026;2022-11-15T07:44:57;32.13;;;18.50;;
66919;SDS011;53831;52.090;17.026;2022-11-15T07:46:16;34.35;;;18.88;;
66919;SDS011;53831;52.090;17.026;2022-11-15T07:47:35;36.92;;;19.63;;
66919;SDS011;53831;52.090;17.026;2022-11-15T07:48:54;35.72;;;18.27;;
66919;SDS011;53831;52.090;17.026;2022-11-15T07:50:14;35.58;;;18.90;;
66919;SDS011;53831;52.090;17.026;2022-11-15T07:51:33;36.10;;;19.05;;
66919;SDS011;53831;52.090;17.026;2022-11-15T07:52:53;34.67;;;18.23;;
66919;SDS011;53831;52.090;17.026;2022-11-15T07:54:16;34.85;;;17.98;;
66919;SDS011;53831;52.090;17.026;2022-11-15T07:55:35;36.13;;;19.23;;
66919;SDS011;53831;52.090;17.026;2022-11-15T07:56:54;34.75;;;19.33;;
66919;SDS011;53831;52.090;17.026;2022-11-15T07:58:13;37.03;;;19.70;;
66919;SDS011;53831;52.090;17.026;2022-11-15T07:59:32;35.13;;;19.55;;
66919;SDS011;53831;52.090;17.026;2022-11-15T08:00:51;40.63;;;21.17;;
66919;SDS011;53831;52.090;17.026;2022-11-15T08:02:10;33.17;;;19.13;;
66919;SDS011;53831;52.090;17.026;2022-11-15T08:03:30;37.80;;;19.80;;
66919;SDS011;53831;52.090;17.026;2022-11-15T08:04:49;36.33;;;19.00;;
66919;SDS011;53831;52.090;17.026;2022-11-15T08:06:08;37.05;;;19.25;;
66919;SDS011;53831;52.090;17.026;2022-11-15T08:07:30;38.60;;;19.95;;
66919;SDS011;53831;52.090;17.026;2022-11-15T08:08:50;38.97;;;19.83;;
66919;SDS011;53831;52.090;17.026;2022-11-15T08:10:09;41.30;;;20.52;;
66919;SDS011;53831;52.090;17.026;2022-11-15T08:11:30;35.50;;;20.02;;
66919;SDS011;53831;52.090;17.026;2022-11-15T08:12:56;38.85;;;19.15;;
66919;SDS011;53831;52.090;17.026;2022-11-15T08:14:22;39.88;;;21.02;;
66919;SDS011;53831;52.090;17.026;2022-11-15T08:15:41;32.75;;;18.50;;
66919;SDS011;53831;52.090;17.026;2022-11-15T08:17:02;33.13;;;18.63;;
66919;SDS011;53831;52.090;17.026;2022-11-15T08:18:21;33.40;;;18.98;;
66919;SDS011;53831;52.090;17.026;2022-11-15T08:19:40;38.42;;;18.65;;
66919;SDS011;53831;52.090;17.026;2022-11-15T08:21:00;38.15;;;20.30;;
66919;SDS011;53831;52.090;17.026;2022-11-15T08:22:20;38.08;;;20.23;;
66919;SDS011;53831;52.090;17.026;2022-11-15T08:23:39;41.85;;;20.00;;